»·PEaware :: SWA1585 KLAS-KDEN

SWA1585 :: KLAS-KDEN

FLIGHT INFORMATION

Flight Status: Arrived
Operator:
Southwest Airlines
More flights by this operator :: More flights under this callsign
Pilot: Daniel W. (24238)
Aircraft: BOEING 737-700
(B737)
More flights by this aircraft type
Origin: KLAS McCarran Intl
United States
Destination: KDEN Denver Intl
United States
More flights between these airports :: More routes between these airports
Route: TRALR9 TRALR NICLE BUMMP SSKII1
File this flight plan on PilotEdge
Remarks: PBN / A1D1O1S2T1 NAV / RNVD1E1A1 RNP10 DOF / 200824 REG / N297WN EET / KZDV0026 CODE / A3117C PER / C
Altitude:
(Current/Filed)
41,000ft
Speed:
(Current/Filed)
445kts
Departed: 24-Aug-20 04:47 PM
Arrived: 24-Aug-20 06:16 PM
Distance/Time
Traveled:
545nm/1:29
Distance/Time
To Go:
Arrived

Flight Plot

Page will automatically refresh every two minutes.

Flight plan parsing failed; only flown route is shown


Map Options




Map Legend


Flown Route
Filed Route
Departure Airport
Arrival Airport
Navaid (VOR, NDB)
Fix

Horizontal Profiles

Position Reports

Time Latitude Longitude Heading Altitude Ground
Speed
24-Aug-20 15:51 36.081237 -115.146083 254 2189ft 0kts
24-Aug-20 15:52 36.081237 -115.146083 254 2189ft 0kts
24-Aug-20 15:53 36.081237 -115.146083 254 2189ft 0kts
24-Aug-20 15:54 36.081237 -115.146083 254 2189ft 0kts
24-Aug-20 15:55 36.081237 -115.146083 254 2189ft 0kts
24-Aug-20 15:56 36.081237 -115.146083 254 2189ft 0kts
24-Aug-20 15:57 36.081237 -115.146083 254 2189ft 0kts
24-Aug-20 15:58 36.081237 -115.146083 254 2189ft 0kts
24-Aug-20 15:59 36.081237 -115.146083 254 2189ft 0kts
24-Aug-20 16:00 36.081237 -115.146083 254 2189ft 0kts
24-Aug-20 16:01 36.081237 -115.146083 254 2189ft 0kts
24-Aug-20 16:02 36.081237 -115.146083 254 2189ft 0kts
24-Aug-20 16:03 36.081237 -115.146083 254 2189ft 0kts
24-Aug-20 16:04 36.081237 -115.146083 254 2189ft 0kts
24-Aug-20 16:05 36.081237 -115.146083 254 2189ft 0kts
24-Aug-20 16:06 36.081237 -115.146083 254 2189ft 0kts
24-Aug-20 16:07 36.081237 -115.146083 254 2189ft 0kts
24-Aug-20 16:08 36.081237 -115.146083 254 2189ft 0kts
24-Aug-20 16:09 36.081237 -115.146083 254 2189ft 0kts
24-Aug-20 16:10 36.081237 -115.146083 254 2189ft 0kts
24-Aug-20 16:11 36.081237 -115.146083 254 2189ft 0kts
24-Aug-20 16:12 36.081237 -115.146083 254 2189ft 0kts
24-Aug-20 16:13 36.081237 -115.146083 254 2189ft 0kts
24-Aug-20 16:14 36.081237 -115.146083 254 2189ft 0kts
24-Aug-20 16:15 36.081237 -115.146083 254 2189ft 0kts
24-Aug-20 16:16 36.081237 -115.146083 254 2189ft 0kts
24-Aug-20 16:17 36.081237 -115.146083 254 2189ft 0kts
24-Aug-20 16:18 36.081237 -115.146083 254 2189ft 0kts
24-Aug-20 16:19 36.081237 -115.146083 254 2189ft 0kts
24-Aug-20 16:20 36.081237 -115.146083 254 2189ft 0kts
24-Aug-20 16:21 36.081237 -115.146083 254 2189ft 0kts
24-Aug-20 16:22 36.081237 -115.146083 254 2189ft 0kts
24-Aug-20 16:23 36.081237 -115.146083 254 2189ft 0kts
24-Aug-20 16:24 36.081237 -115.146083 254 2189ft 0kts
24-Aug-20 16:25 36.081237 -115.146083 254 2189ft 0kts
24-Aug-20 16:26 36.081237 -115.146083 254 2189ft 0kts
24-Aug-20 16:27 36.081237 -115.146083 254 2189ft 0kts
24-Aug-20 16:28 36.081237 -115.146083 254 2189ft 0kts
24-Aug-20 16:29 36.081237 -115.146083 254 2189ft 0kts
24-Aug-20 16:30 36.081237 -115.146083 254 2189ft 0kts
24-Aug-20 16:31 36.081237 -115.146083 254 2189ft 0kts
24-Aug-20 16:32 36.081237 -115.146083 254 2189ft 0kts
24-Aug-20 16:33 36.081237 -115.146083 254 2189ft 0kts
24-Aug-20 16:34 36.081237 -115.146083 254 2189ft 0kts
24-Aug-20 16:35 36.081237 -115.146083 254 2189ft 0kts
24-Aug-20 16:36 36.081237 -115.146083 254 2189ft 0kts
24-Aug-20 16:37 36.081237 -115.146083 254 2189ft 0kts
24-Aug-20 16:38 36.081237 -115.146083 254 2189ft 0kts
24-Aug-20 16:39 36.081461 -115.145476 229 2189ft 2kts
24-Aug-20 16:40 36.081629 -115.145292 209 2189ft 0kts
24-Aug-20 16:41 36.081629 -115.145292 209 2189ft 0kts
24-Aug-20 16:42 36.079261 -115.144362 181 2189ft 2kts
24-Aug-20 16:43 36.078564 -115.147914 274 2189ft 26kts
24-Aug-20 16:44 36.078040 -115.155317 269 2189ft 24kts
24-Aug-20 16:45 36.077511 -115.161310 182 2189ft 4kts
24-Aug-20 16:46 36.076398 -115.152333 90 2189ft 102kts
24-Aug-20 16:47 36.076697 -115.096231 92 3340ft 201kts
24-Aug-20 16:48 36.075478 -115.017388 91 4858ft 264kts
24-Aug-20 16:49 36.079442 -114.921142 78 7465ft 291kts
24-Aug-20 16:50 36.097664 -114.820753 79 10661ft 309kts
24-Aug-20 16:51 36.117218 -114.705356 79 13288ft 363kts
24-Aug-20 16:52 36.138636 -114.579914 79 16634ft 381kts
24-Aug-20 16:53 36.160426 -114.448776 79 19729ft 398kts
24-Aug-20 16:54 36.182715 -114.312078 79 22410ft 413kts
24-Aug-20 16:55 36.203581 -114.169290 83 24697ft 428kts
24-Aug-20 16:56 36.220261 -114.020836 83 26595ft 444kts
24-Aug-20 16:57 36.238109 -113.866640 83 28338ft 458kts
24-Aug-20 16:58 36.256985 -113.708245 83 29890ft 471kts
24-Aug-20 16:59 36.276109 -113.545832 83 31273ft 482kts
24-Aug-20 17:00 36.294814 -113.379918 83 32617ft 488kts
24-Aug-20 17:01 36.320472 -113.215377 70 34290ft 486kts
24-Aug-20 17:02 36.381579 -113.066929 61 35936ft 482kts
24-Aug-20 17:03 36.445891 -112.921415 61 37365ft 479kts
24-Aug-20 17:04 36.509732 -112.777141 60 38650ft 475kts
24-Aug-20 17:05 36.572835 -112.633940 61 40005ft 467kts
24-Aug-20 17:06 36.635032 -112.491564 61 40952ft 465kts
24-Aug-20 17:07 36.696816 -112.349434 61 41156ft 465kts
24-Aug-20 17:08 36.758136 -112.207744 61 41148ft 465kts
24-Aug-20 17:09 36.819523 -112.065277 61 41139ft 466kts
24-Aug-20 17:10 36.880455 -111.923239 61 41115ft 464kts
24-Aug-20 17:11 36.941258 -111.780892 61 41080ft 464kts
24-Aug-20 17:12 37.001908 -111.638271 61 41052ft 464kts
24-Aug-20 17:13 37.062565 -111.495005 61 41043ft 465kts
24-Aug-20 17:14 37.122915 -111.351826 61 41048ft 465kts
24-Aug-20 17:15 37.183117 -111.208361 61 41062ft 464kts
24-Aug-20 17:16 37.243033 -111.064938 61 41078ft 464kts
24-Aug-20 17:18 37.302808 -110.921210 62 41090ft 464kts
24-Aug-20 17:19 37.362291 -110.777540 62 41103ft 464kts
24-Aug-20 17:20 37.421760 -110.633251 62 41107ft 463kts
24-Aug-20 17:21 37.480822 -110.489300 62 41123ft 463kts
24-Aug-20 17:22 37.539711 -110.345115 62 41142ft 463kts
24-Aug-20 17:23 37.598629 -110.200200 62 41155ft 463kts
24-Aug-20 17:24 37.657018 -110.055926 62 41165ft 462kts
24-Aug-20 17:25 37.715410 -109.910979 62 41186ft 462kts
24-Aug-20 17:26 37.773437 -109.766272 62 41206ft 462kts
24-Aug-20 17:27 37.831428 -109.620982 62 41235ft 462kts
24-Aug-20 17:28 37.888970 -109.476147 62 41237ft 462kts
24-Aug-20 17:29 37.946540 -109.330564 62 41235ft 461kts
24-Aug-20 17:30 38.004070 -109.185278 62 41229ft 460kts
24-Aug-20 17:31 38.061109 -109.039047 62 41181ft 462kts
24-Aug-20 17:32 38.118108 -108.893009 62 41164ft 461kts
24-Aug-20 17:33 38.175254 -108.747169 62 41212ft 460kts
24-Aug-20 17:33 38.222450 -108.626037 62 41348ft 460kts
24-Aug-20 17:35 38.289112 -108.455857 62 41358ft 459kts
24-Aug-20 17:36 38.345781 -108.310873 62 41308ft 458kts
24-Aug-20 17:37 38.402079 -108.164477 62 41278ft 458kts
24-Aug-20 17:37 38.448563 -108.043053 62 41248ft 458kts
24-Aug-20 17:38 38.504339 -107.896636 62 41221ft 458kts
24-Aug-20 17:39 38.559978 -107.749831 63 41220ft 459kts
24-Aug-20 17:40 38.614902 -107.602304 63 41236ft 459kts
24-Aug-20 17:41 38.669970 -107.454586 62 41271ft 460kts
24-Aug-20 17:42 38.725636 -107.307101 63 41313ft 461kts
24-Aug-20 17:43 38.781171 -107.158921 63 41389ft 461kts
24-Aug-20 17:44 38.837128 -107.010608 62 41411ft 461kts
24-Aug-20 17:45 38.892938 -106.862259 63 41431ft 462kts
24-Aug-20 17:46 38.948098 -106.712970 63 40917ft 463kts
24-Aug-20 17:47 39.003214 -106.563161 63 39920ft 466kts
24-Aug-20 17:48 39.058822 -106.412148 64 37324ft 468kts
24-Aug-20 17:49 39.114176 -106.259360 63 33990ft 473kts
24-Aug-20 17:50 39.169441 -106.106436 63 31026ft 464kts
24-Aug-20 17:51 39.223077 -105.958830 63 28458ft 446kts
24-Aug-20 17:52 39.274197 -105.815887 63 25903ft 430kts
24-Aug-20 17:53 39.323321 -105.677938 63 23330ft 417kts
24-Aug-20 17:54 39.372150 -105.544372 63 20724ft 405kts
24-Aug-20 17:55 39.413833 -105.417301 76 19739ft 357kts
24-Aug-20 17:56 39.424638 -105.291479 62 17780ft 347kts
24-Aug-20 17:57 39.491210 -105.210228 37 16206ft 326kts
24-Aug-20 17:58 39.561303 -105.138067 37 15189ft 319kts
24-Aug-20 17:59 39.632225 -105.065788 37 15079ft 324kts
24-Aug-20 18:00 39.702714 -104.994159 37 14430ft 317kts
24-Aug-20 18:01 39.779054 -104.943753 359 12589ft 314kts
24-Aug-20 18:02 39.866492 -104.948264 357 10735ft 312kts
24-Aug-20 18:03 39.952561 -104.953068 357 10032ft 308kts
24-Aug-20 18:04 40.030513 -104.957357 357 9977ft 259kts
24-Aug-20 18:05 40.100969 -104.958666 16 9958ft 253kts
24-Aug-20 18:06 40.128424 -104.885230 87 9433ft 239kts
24-Aug-20 18:07 40.134633 -104.798103 87 8183ft 238kts
24-Aug-20 18:08 40.140486 -104.712572 87 7156ft 231kts
24-Aug-20 18:09 40.124067 -104.644809 168 6944ft 207kts
24-Aug-20 18:10 40.072828 -104.676401 202 6989ft 210kts
24-Aug-20 18:11 40.017862 -104.685682 179 6979ft 188kts
24-Aug-20 18:12 39.966583 -104.686000 181 6847ft 182kts
24-Aug-20 18:13 39.923842 -104.686337 184 5979ft 137kts
24-Aug-20 18:14 39.887544 -104.686933 181 5439ft 91kts
24-Aug-20 18:15 39.873255 -104.686392 151 5439ft 21kts
24-Aug-20 18:16 39.868364 -104.685033 180 5439ft 20kts
24-Aug-20 18:17 39.862591 -104.685089 180 5439ft 19kts
24-Aug-20 18:18 39.861422 -104.680928 90 5439ft 14kts
24-Aug-20 18:19 39.861386 -104.675693 90 5439ft 17kts
24-Aug-20 18:20 39.861852 -104.671564 0 5439ft 12kts
24-Aug-20 18:21 39.862638 -104.671553 0 5439ft 0kts
24-Aug-20 18:22 39.862638 -104.671553 0 5439ft 0kts
24-Aug-20 18:23 39.862638 -104.671553 0 5439ft 0kts
24-Aug-20 18:24 39.862638 -104.671553 0 5439ft 0kts
24-Aug-20 18:25 39.862638 -104.671553 0 5439ft 0kts
24-Aug-20 18:26 39.862638 -104.671553 0 5439ft 0kts

Navigation Log

Ident Type
Flight plan parsing failed, navigation log unavailable